sensor_id;sensor_type;location;lat;lon;timestamp;P1;durP1;ratioP1;P2;durP2;ratioP2
68076;SDS011;54866;53.458;14.540;2023-04-15T00:01:04;12.50;;;9.50;;
68076;SDS011;54866;53.458;14.540;2023-04-15T00:03:34;9.40;;;8.40;;
68076;SDS011;54866;53.458;14.540;2023-04-15T00:06:03;11.20;;;9.10;;
68076;SDS011;54866;53.458;14.540;2023-04-15T00:08:33;11.40;;;9.30;;
68076;SDS011;54866;53.458;14.540;2023-04-15T00:11:03;12.90;;;9.30;;
68076;SDS011;54866;53.458;14.540;2023-04-15T00:13:33;12.70;;;10.10;;
68076;SDS011;54866;53.458;14.540;2023-04-15T00:16:03;12.70;;;10.10;;
68076;SDS011;54866;53.458;14.540;2023-04-15T00:18:34;12.10;;;9.60;;
68076;SDS011;54866;53.458;14.540;2023-04-15T00:21:04;12.30;;;9.80;;
68076;SDS011;54866;53.458;14.540;2023-04-15T00:23:34;13.10;;;10.30;;
68076;SDS011;54866;53.458;14.540;2023-04-15T00:26:04;11.60;;;9.50;;
68076;SDS011;54866;53.458;14.540;2023-04-15T00:28:34;13.30;;;9.30;;
68076;SDS011;54866;53.458;14.540;2023-04-15T00:31:04;15.20;;;10.80;;
68076;SDS011;54866;53.458;14.540;2023-04-15T00:33:33;13.10;;;10.30;;
68076;SDS011;54866;53.458;14.540;2023-04-15T00:36:03;12.10;;;8.70;;
68076;SDS011;54866;53.458;14.540;2023-04-15T00:38:36;11.30;;;9.70;;
68076;SDS011;54866;53.458;14.540;2023-04-15T00:41:06;12.20;;;9.80;;
68076;SDS011;54866;53.458;14.540;2023-04-15T00:43:37;12.20;;;10.60;;
68076;SDS011;54866;53.458;14.540;2023-04-15T00:46:06;13.40;;;10.50;;
68076;SDS011;54866;53.458;14.540;2023-04-15T00:48:36;11.70;;;9.40;;
68076;SDS011;54866;53.458;14.540;2023-04-15T00:51:07;12.50;;;10.80;;
68076;SDS011;54866;53.458;14.540;2023-04-15T00:53:37;13.90;;;10.20;;
68076;SDS011;54866;53.458;14.540;2023-04-15T00:56:07;12.40;;;9.40;;
68076;SDS011;54866;53.458;14.540;2023-04-15T00:58:36;11.10;;;8.60;;
68076;SDS011;54866;53.458;14.540;2023-04-15T01:01:06;12.40;;;9.20;;
68076;SDS011;54866;53.458;14.540;2023-04-15T01:03:36;10.30;;;8.50;;
68076;SDS011;54866;53.458;14.540;2023-04-15T01:06:06;11.90;;;9.20;;
68076;SDS011;54866;53.458;14.540;2023-04-15T01:08:37;12.50;;;9.50;;
68076;SDS011;54866;53.458;14.540;2023-04-15T01:11:07;11.20;;;9.10;;
68076;SDS011;54866;53.458;14.540;2023-04-15T01:13:39;12.90;;;10.40;;
68076;SDS011;54866;53.458;14.540;2023-04-15T01:16:09;12.40;;;9.70;;
68076;SDS011;54866;53.458;14.540;2023-04-15T01:18:39;11.20;;;8.70;;
68076;SDS011;54866;53.458;14.540;2023-04-15T01:21:10;11.00;;;9.00;;
68076;SDS011;54866;53.458;14.540;2023-04-15T01:23:39;11.60;;;9.20;;
68076;SDS011;54866;53.458;14.540;2023-04-15T01:26:11;11.60;;;9.30;;
68076;SDS011;54866;53.458;14.540;2023-04-15T01:28:42;14.00;;;9.30;;
68076;SDS011;54866;53.458;14.540;2023-04-15T01:31:12;10.80;;;9.40;;
68076;SDS011;54866;53.458;14.540;2023-04-15T01:33:42;12.00;;;9.70;;
68076;SDS011;54866;53.458;14.540;2023-04-15T01:36:12;12.50;;;9.70;;
68076;SDS011;54866;53.458;14.540;2023-04-15T01:38:42;12.80;;;10.30;;
68076;SDS011;54866;53.458;14.540;2023-04-15T01:41:11;13.40;;;10.50;;
68076;SDS011;54866;53.458;14.540;2023-04-15T01:43:41;12.60;;;10.60;;
68076;SDS011;54866;53.458;14.540;2023-04-15T01:46:11;12.10;;;9.90;;
68076;SDS011;54866;53.458;14.540;2023-04-15T01:48:40;12.10;;;9.50;;
68076;SDS011;54866;53.458;14.540;2023-04-15T01:51:10;14.00;;;11.10;;
68076;SDS011;54866;53.458;14.540;2023-04-15T01:53:40;12.50;;;10.90;;
68076;SDS011;54866;53.458;14.540;2023-04-15T01:56:09;11.80;;;9.00;;
68076;SDS011;54866;53.458;14.540;2023-04-15T01:58:39;13.50;;;10.60;;
68076;SDS011;54866;53.458;14.540;2023-04-15T02:01:08;11.90;;;9.90;;
68076;SDS011;54866;53.458;14.540;2023-04-15T02:03:38;9.90;;;8.60;;
68076;SDS011;54866;53.458;14.540;2023-04-15T02:06:08;11.80;;;9.70;;
68076;SDS011;54866;53.458;14.540;2023-04-15T02:08:37;10.80;;;8.50;;
68076;SDS011;54866;53.458;14.540;2023-04-15T02:11:07;14.60;;;12.00;;
68076;SDS011;54866;53.458;14.540;2023-04-15T02:13:36;10.90;;;9.50;;
68076;SDS011;54866;53.458;14.540;2023-04-15T02:16:15;12.40;;;9.10;;
68076;SDS011;54866;53.458;14.540;2023-04-15T02:18:45;11.50;;;9.30;;
68076;SDS011;54866;53.458;14.540;2023-04-15T02:21:15;14.00;;;9.20;;
68076;SDS011;54866;53.458;14.540;2023-04-15T02:23:45;12.70;;;9.10;;
68076;SDS011;54866;53.458;14.540;2023-04-15T02:26:14;11.00;;;7.70;;
68076;SDS011;54866;53.458;14.540;2023-04-15T02:28:44;12.00;;;9.00;;
68076;SDS011;54866;53.458;14.540;2023-04-15T02:31:14;12.50;;;8.50;;
68076;SDS011;54866;53.458;14.540;2023-04-15T02:33:43;12.80;;;9.40;;
68076;SDS011;54866;53.458;14.540;2023-04-15T02:36:13;9.90;;;8.50;;
68076;SDS011;54866;53.458;14.540;2023-04-15T02:38:43;13.60;;;9.50;;
68076;SDS011;54866;53.458;14.540;2023-04-15T02:41:12;13.30;;;10.40;;
68076;SDS011;54866;53.458;14.540;2023-04-15T02:43:42;9.90;;;8.20;;
68076;SDS011;54866;53.458;14.540;2023-04-15T02:46:11;15.10;;;10.40;;
68076;SDS011;54866;53.458;14.540;2023-04-15T02:48:41;11.50;;;9.90;;
68076;SDS011;54866;53.458;14.540;2023-04-15T02:51:14;13.10;;;10.80;;
68076;SDS011;54866;53.458;14.540;2023-04-15T02:53:46;13.70;;;11.00;;
68076;SDS011;54866;53.458;14.540;2023-04-15T02:56:16;14.40;;;11.40;;
68076;SDS011;54866;53.458;14.540;2023-04-15T02:58:45;10.70;;;9.10;;
68076;SDS011;54866;53.458;14.540;2023-04-15T03:01:16;11.60;;;9.80;;
68076;SDS011;54866;53.458;14.540;2023-04-15T03:03:46;12.20;;;9.80;;
68076;SDS011;54866;53.458;14.540;2023-04-15T03:06:15;15.40;;;11.60;;
68076;SDS011;54866;53.458;14.540;2023-04-15T03:08:45;9.80;;;7.00;;
68076;SDS011;54866;53.458;14.540;2023-04-15T03:11:15;12.10;;;10.80;;
68076;SDS011;54866;53.458;14.540;2023-04-15T03:13:44;17.60;;;13.50;;
68076;SDS011;54866;53.458;14.540;2023-04-15T03:16:14;16.00;;;11.90;;
68076;SDS011;54866;53.458;14.540;2023-04-15T03:18:43;12.50;;;10.60;;
68076;SDS011;54866;53.458;14.540;2023-04-15T03:21:13;13.20;;;11.00;;
68076;SDS011;54866;53.458;14.540;2023-04-15T03:23:42;13.60;;;11.90;;
68076;SDS011;54866;53.458;14.540;2023-04-15T03:26:24;12.80;;;10.60;;
68076;SDS011;54866;53.458;14.540;2023-04-15T03:28:55;12.90;;;10.30;;
68076;SDS011;54866;53.458;14.540;2023-04-15T03:31:25;13.00;;;10.90;;
68076;SDS011;54866;53.458;14.540;2023-04-15T03:33:54;13.90;;;11.40;;
68076;SDS011;54866;53.458;14.540;2023-04-15T03:36:24;13.00;;;11.00;;
68076;SDS011;54866;53.458;14.540;2023-04-15T03:38:54;12.50;;;9.70;;
68076;SDS011;54866;53.458;14.540;2023-04-15T03:41:23;12.50;;;10.50;;
68076;SDS011;54866;53.458;14.540;2023-04-15T03:43:53;15.00;;;11.80;;
68076;SDS011;54866;53.458;14.540;2023-04-15T03:46:23;14.80;;;12.10;;
68076;SDS011;54866;53.458;14.540;2023-04-15T03:48:53;14.50;;;11.80;;
68076;SDS011;54866;53.458;14.540;2023-04-15T03:51:22;15.70;;;12.30;;
68076;SDS011;54866;53.458;14.540;2023-04-15T03:53:53;12.40;;;11.10;;
68076;SDS011;54866;53.458;14.540;2023-04-15T03:56:22;12.70;;;10.20;;
68076;SDS011;54866;53.458;14.540;2023-04-15T03:58:52;15.20;;;11.70;;
68076;SDS011;54866;53.458;14.540;2023-04-15T04:01:22;12.80;;;10.40;;
68076;SDS011;54866;53.458;14.540;2023-04-15T04:03:51;14.50;;;10.80;;
68076;SDS011;54866;53.458;14.540;2023-04-15T04:06:21;12.30;;;10.40;;
68076;SDS011;54866;53.458;14.540;2023-04-15T04:08:51;12.60;;;11.30;;
68076;SDS011;54866;53.458;14.540;2023-04-15T04:11:21;12.10;;;9.70;;
68076;SDS011;54866;53.458;14.540;2023-04-15T04:13:50;12.10;;;9.10;;
68076;SDS011;54866;53.458;14.540;2023-04-15T04:16:20;12.40;;;11.10;;
68076;SDS011;54866;53.458;14.540;2023-04-15T04:18:50;15.10;;;12.20;;
68076;SDS011;54866;53.458;14.540;2023-04-15T04:21:19;14.70;;;12.90;;
68076;SDS011;54866;53.458;14.540;2023-04-15T04:23:49;13.80;;;12.30;;
68076;SDS011;54866;53.458;14.540;2023-04-15T04:26:18;14.00;;;12.00;;
68076;SDS011;54866;53.458;14.540;2023-04-15T04:28:48;15.30;;;13.10;;
68076;SDS011;54866;53.458;14.540;2023-04-15T04:31:17;13.00;;;11.50;;
68076;SDS011;54866;53.458;14.540;2023-04-15T04:33:47;12.40;;;11.00;;
68076;SDS011;54866;53.458;14.540;2023-04-15T04:36:17;12.50;;;11.00;;
68076;SDS011;54866;53.458;14.540;2023-04-15T04:38:46;12.50;;;10.60;;
68076;SDS011;54866;53.458;14.540;2023-04-15T04:41:16;13.00;;;10.90;;
68076;SDS011;54866;53.458;14.540;2023-04-15T04:43:46;13.70;;;11.10;;
68076;SDS011;54866;53.458;14.540;2023-04-15T04:46:15;15.00;;;11.30;;
68076;SDS011;54866;53.458;14.540;2023-04-15T04:48:45;12.80;;;11.50;;
68076;SDS011;54866;53.458;14.540;2023-04-15T04:51:14;12.70;;;10.50;;
68076;SDS011;54866;53.458;14.540;2023-04-15T04:53:44;13.60;;;11.10;;
68076;SDS011;54866;53.458;14.540;2023-04-15T04:56:14;14.00;;;12.30;;
68076;SDS011;54866;53.458;14.540;2023-04-15T04:58:43;12.40;;;10.80;;
68076;SDS011;54866;53.458;14.540;2023-04-15T05:01:13;13.10;;;11.20;;
68076;SDS011;54866;53.458;14.540;2023-04-15T05:03:42;12.70;;;9.90;;
68076;SDS011;54866;53.458;14.540;2023-04-15T05:06:12;14.40;;;12.00;;
68076;SDS011;54866;53.458;14.540;2023-04-15T05:08:41;11.80;;;10.50;;
68076;SDS011;54866;53.458;14.540;2023-04-15T05:11:12;11.70;;;10.40;;
68076;SDS011;54866;53.458;14.540;2023-04-15T05:13:42;11.70;;;10.50;;
68076;SDS011;54866;53.458;14.540;2023-04-15T05:16:11;10.80;;;9.70;;
68076;SDS011;54866;53.458;14.540;2023-04-15T05:18:41;10.60;;;9.60;;
68076;SDS011;54866;53.458;14.540;2023-04-15T05:21:11;10.90;;;9.80;;
68076;SDS011;54866;53.458;14.540;2023-04-15T05:23:40;10.90;;;9.70;;
68076;SDS011;54866;53.458;14.540;2023-04-15T05:26:10;10.70;;;8.90;;
68076;SDS011;54866;53.458;14.540;2023-04-15T05:28:39;10.90;;;9.90;;
68076;SDS011;54866;53.458;14.540;2023-04-15T05:31:09;10.40;;;9.40;;
68076;SDS011;54866;53.458;14.540;2023-04-15T05:33:38;10.20;;;9.30;;
68076;SDS011;54866;53.458;14.540;2023-04-15T05:36:08;10.90;;;9.20;;
68076;SDS011;54866;53.458;14.540;2023-04-15T05:38:38;9.50;;;8.60;;
68076;SDS011;54866;53.458;14.540;2023-04-15T05:41:07;11.40;;;10.30;;
68076;SDS011;54866;53.458;14.540;2023-04-15T05:43:37;10.70;;;9.70;;
68076;SDS011;54866;53.458;14.540;2023-04-15T05:46:07;10.70;;;9.70;;
68076;SDS011;54866;53.458;14.540;2023-04-15T05:48:36;10.00;;;8.70;;
68076;SDS011;54866;53.458;14.540;2023-04-15T05:51:06;9.90;;;8.90;;
68076;SDS011;54866;53.458;14.540;2023-04-15T05:53:36;11.40;;;10.30;;
68076;SDS011;54866;53.458;14.540;2023-04-15T05:56:07;9.10;;;8.20;;
68076;SDS011;54866;53.458;14.540;2023-04-15T05:58:36;11.10;;;9.90;;
68076;SDS011;54866;53.458;14.540;2023-04-15T06:01:06;10.20;;;9.20;;
68076;SDS011;54866;53.458;14.540;2023-04-15T06:03:36;10.40;;;9.20;;
68076;SDS011;54866;53.458;14.540;2023-04-15T06:06:06;11.10;;;9.90;;
68076;SDS011;54866;53.458;14.540;2023-04-15T06:08:35;10.60;;;9.40;;
68076;SDS011;54866;53.458;14.540;2023-04-15T06:11:05;10.70;;;9.20;;
68076;SDS011;54866;53.458;14.540;2023-04-15T06:13:34;12.70;;;10.50;;
68076;SDS011;54866;53.458;14.540;2023-04-15T06:16:04;12.20;;;9.20;;
68076;SDS011;54866;53.458;14.540;2023-04-15T06:18:34;11.60;;;10.20;;
68076;SDS011;54866;53.458;14.540;2023-04-15T06:21:04;11.50;;;9.70;;
68076;SDS011;54866;53.458;14.540;2023-04-15T06:23:35;11.20;;;9.50;;
68076;SDS011;54866;53.458;14.540;2023-04-15T06:26:06;12.00;;;10.20;;
68076;SDS011;54866;53.458;14.540;2023-04-15T06:28:36;11.20;;;9.60;;
68076;SDS011;54866;53.458;14.540;2023-04-15T06:31:06;11.10;;;10.00;;
68076;SDS011;54866;53.458;14.540;2023-04-15T06:33:35;10.60;;;9.50;;
68076;SDS011;54866;53.458;14.540;2023-04-15T06:36:05;11.40;;;10.10;;
68076;SDS011;54866;53.458;14.540;2023-04-15T06:38:35;10.70;;;9.70;;
68076;SDS011;54866;53.458;14.540;2023-04-15T06:41:04;11.20;;;10.00;;
68076;SDS011;54866;53.458;14.540;2023-04-15T06:43:34;11.00;;;9.70;;
68076;SDS011;54866;53.458;14.540;2023-04-15T06:46:04;12.80;;;9.90;;
68076;SDS011;54866;53.458;14.540;2023-04-15T06:48:33;12.20;;;10.80;;
68076;SDS011;54866;53.458;14.540;2023-04-15T06:51:03;11.20;;;9.90;;
68076;SDS011;54866;53.458;14.540;2023-04-15T06:53:33;10.70;;;9.60;;
68076;SDS011;54866;53.458;14.540;2023-04-15T06:56:07;14.00;;;10.30;;
68076;SDS011;54866;53.458;14.540;2023-04-15T06:58:37;12.00;;;8.60;;
68076;SDS011;54866;53.458;14.540;2023-04-15T07:01:06;13.80;;;11.30;;
68076;SDS011;54866;53.458;14.540;2023-04-15T07:03:36;12.50;;;11.20;;
68076;SDS011;54866;53.458;14.540;2023-04-15T07:06:07;11.60;;;10.20;;
68076;SDS011;54866;53.458;14.540;2023-04-15T07:08:37;12.70;;;11.30;;
68076;SDS011;54866;53.458;14.540;2023-04-15T07:11:07;11.70;;;10.50;;
68076;SDS011;54866;53.458;14.540;2023-04-15T07:13:37;12.80;;;10.70;;
68076;SDS011;54866;53.458;14.540;2023-04-15T07:16:06;16.70;;;13.10;;
68076;SDS011;54866;53.458;14.540;2023-04-15T07:18:36;13.00;;;11.60;;
68076;SDS011;54866;53.458;14.540;2023-04-15T07:21:05;15.80;;;12.80;;
68076;SDS011;54866;53.458;14.540;2023-04-15T07:23:35;14.30;;;12.10;;
68076;SDS011;54866;53.458;14.540;2023-04-15T07:26:05;11.30;;;10.10;;
68076;SDS011;54866;53.458;14.540;2023-04-15T07:28:34;13.80;;;10.60;;
68076;SDS011;54866;53.458;14.540;2023-04-15T07:31:04;11.50;;;9.80;;
68076;SDS011;54866;53.458;14.540;2023-04-15T07:33:34;11.80;;;10.50;;
68076;SDS011;54866;53.458;14.540;2023-04-15T07:36:03;11.20;;;10.10;;
68076;SDS011;54866;53.458;14.540;2023-04-15T07:38:33;11.10;;;9.50;;
68076;SDS011;54866;53.458;14.540;2023-04-15T07:41:03;11.20;;;10.10;;
68076;SDS011;54866;53.458;14.540;2023-04-15T07:43:33;12.90;;;11.40;;
68076;SDS011;54866;53.458;14.540;2023-04-15T07:46:02;12.80;;;11.50;;
68076;SDS011;54866;53.458;14.540;2023-04-15T07:48:32;11.50;;;10.20;;
68076;SDS011;54866;53.458;14.540;2023-04-15T07:51:02;11.60;;;10.10;;
68076;SDS011;54866;53.458;14.540;2023-04-15T07:53:32;14.70;;;11.30;;
68076;SDS011;54866;53.458;14.540;2023-04-15T07:56:01;13.90;;;11.00;;
68076;SDS011;54866;53.458;14.540;2023-04-15T08:01:45;12.20;;;10.90;;
68076;SDS011;54866;53.458;14.540;2023-04-15T08:04:15;12.10;;;9.60;;
68076;SDS011;54866;53.458;14.540;2023-04-15T08:06:45;13.00;;;11.60;;
68076;SDS011;54866;53.458;14.540;2023-04-15T08:09:15;12.10;;;10.40;;
68076;SDS011;54866;53.458;14.540;2023-04-15T08:11:47;13.10;;;10.80;;
68076;SDS011;54866;53.458;14.540;2023-04-15T08:14:16;12.30;;;11.00;;
68076;SDS011;54866;53.458;14.540;2023-04-15T08:16:46;12.50;;;10.70;;
68076;SDS011;54866;53.458;14.540;2023-04-15T08:19:15;12.70;;;11.40;;
68076;SDS011;54866;53.458;14.540;2023-04-15T08:21:45;11.60;;;10.20;;
68076;SDS011;54866;53.458;14.540;2023-04-15T08:24:15;11.00;;;9.30;;
68076;SDS011;54866;53.458;14.540;2023-04-15T08:26:45;13.70;;;12.10;;
68076;SDS011;54866;53.458;14.540;2023-04-15T08:29:14;14.90;;;13.00;;
68076;SDS011;54866;53.458;14.540;2023-04-15T08:31:44;15.20;;;13.70;;
68076;SDS011;54866;53.458;14.540;2023-04-15T08:34:13;14.20;;;12.90;;
68076;SDS011;54866;53.458;14.540;2023-04-15T08:36:44;17.00;;;15.30;;
68076;SDS011;54866;53.458;14.540;2023-04-15T08:39:13;17.70;;;15.20;;
68076;SDS011;54866;53.458;14.540;2023-04-15T08:41:46;11.90;;;9.90;;
68076;SDS011;54866;53.458;14.540;2023-04-15T08:44:20;12.50;;;10.90;;
68076;SDS011;54866;53.458;14.540;2023-04-15T08:46:52;15.40;;;12.30;;
68076;SDS011;54866;53.458;14.540;2023-04-15T08:49:23;15.70;;;14.10;;
68076;SDS011;54866;53.458;14.540;2023-04-15T08:51:55;14.10;;;12.50;;
68076;SDS011;54866;53.458;14.540;2023-04-15T08:54:27;13.30;;;11.40;;
68076;SDS011;54866;53.458;14.540;2023-04-15T08:56:57;14.40;;;12.90;;
68076;SDS011;54866;53.458;14.540;2023-04-15T08:59:27;13.30;;;11.60;;
68076;SDS011;54866;53.458;14.540;2023-04-15T09:01:58;13.50;;;12.00;;
68076;SDS011;54866;53.458;14.540;2023-04-15T09:04:29;18.40;;;16.60;;
68076;SDS011;54866;53.458;14.540;2023-04-15T09:06:58;19.40;;;17.50;;
68076;SDS011;54866;53.458;14.540;2023-04-15T09:09:28;18.60;;;14.10;;
68076;SDS011;54866;53.458;14.540;2023-04-15T09:11:59;15.30;;;13.30;;
68076;SDS011;54866;53.458;14.540;2023-04-15T09:14:29;14.00;;;12.50;;
68076;SDS011;54866;53.458;14.540;2023-04-15T09:17:01;12.10;;;9.70;;
68076;SDS011;54866;53.458;14.540;2023-04-15T09:19:31;12.40;;;11.10;;
68076;SDS011;54866;53.458;14.540;2023-04-15T09:22:01;14.20;;;10.80;;
68076;SDS011;54866;53.458;14.540;2023-04-15T09:24:34;13.70;;;12.30;;
68076;SDS011;54866;53.458;14.540;2023-04-15T09:27:05;12.90;;;11.30;;
68076;SDS011;54866;53.458;14.540;2023-04-15T09:29:34;13.10;;;11.00;;
68076;SDS011;54866;53.458;14.540;2023-04-15T09:32:11;13.80;;;12.10;;
68076;SDS011;54866;53.458;14.540;2023-04-15T09:34:42;11.90;;;10.70;;
68076;SDS011;54866;53.458;14.540;2023-04-15T09:37:12;12.70;;;11.50;;
68076;SDS011;54866;53.458;14.540;2023-04-15T09:39:46;13.10;;;10.40;;
68076;SDS011;54866;53.458;14.540;2023-04-15T09:42:17;12.50;;;11.20;;
68076;SDS011;54866;53.458;14.540;2023-04-15T09:44:49;12.70;;;11.50;;
68076;SDS011;54866;53.458;14.540;2023-04-15T09:47:28;13.10;;;11.80;;
68076;SDS011;54866;53.458;14.540;2023-04-15T09:49:59;13.70;;;12.00;;
68076;SDS011;54866;53.458;14.540;2023-04-15T09:52:29;15.30;;;13.70;;
68076;SDS011;54866;53.458;14.540;2023-04-15T09:54:59;14.70;;;13.00;;
68076;SDS011;54866;53.458;14.540;2023-04-15T09:57:33;13.20;;;10.50;;
68076;SDS011;54866;53.458;14.540;2023-04-15T10:00:05;12.50;;;10.90;;
68076;SDS011;54866;53.458;14.540;2023-04-15T10:02:37;13.00;;;11.10;;
68076;SDS011;54866;53.458;14.540;2023-04-15T10:05:10;12.80;;;10.30;;
68076;SDS011;54866;53.458;14.540;2023-04-15T10:07:41;11.60;;;9.10;;
68076;SDS011;54866;53.458;14.540;2023-04-15T10:10:11;11.70;;;10.50;;
68076;SDS011;54866;53.458;14.540;2023-04-15T10:12:42;12.20;;;10.90;;
68076;SDS011;54866;53.458;14.540;2023-04-15T10:15:13;12.60;;;9.20;;
68076;SDS011;54866;53.458;14.540;2023-04-15T10:17:43;14.10;;;11.70;;
68076;SDS011;54866;53.458;14.540;2023-04-15T10:20:14;13.00;;;10.50;;
68076;SDS011;54866;53.458;14.540;2023-04-15T10:22:46;11.60;;;9.60;;
68076;SDS011;54866;53.458;14.540;2023-04-15T10:25:16;10.40;;;8.80;;
68076;SDS011;54866;53.458;14.540;2023-04-15T10:27:47;12.70;;;10.30;;
68076;SDS011;54866;53.458;14.540;2023-04-15T10:30:18;11.50;;;9.70;;
68076;SDS011;54866;53.458;14.540;2023-04-15T10:32:49;10.20;;;9.10;;
68076;SDS011;54866;53.458;14.540;2023-04-15T10:35:19;12.20;;;10.90;;
68076;SDS011;54866;53.458;14.540;2023-04-15T10:37:50;11.60;;;10.40;;
68076;SDS011;54866;53.458;14.540;2023-04-15T10:40:27;11.20;;;9.60;;
68076;SDS011;54866;53.458;14.540;2023-04-15T10:42:58;10.80;;;9.60;;
68076;SDS011;54866;53.458;14.540;2023-04-15T10:45:31;12.80;;;10.30;;
68076;SDS011;54866;53.458;14.540;2023-04-15T10:48:02;11.60;;;9.70;;
68076;SDS011;54866;53.458;14.540;2023-04-15T10:50:33;12.50;;;10.60;;
68076;SDS011;54866;53.458;14.540;2023-04-15T10:53:05;10.20;;;9.10;;
68076;SDS011;54866;53.458;14.540;2023-04-15T10:55:38;9.80;;;8.10;;
68076;SDS011;54866;53.458;14.540;2023-04-15T10:58:08;15.10;;;11.20;;
68076;SDS011;54866;53.458;14.540;2023-04-15T11:00:39;10.40;;;8.80;;
68076;SDS011;54866;53.458;14.540;2023-04-15T11:03:16;12.20;;;8.80;;
68076;SDS011;54866;53.458;14.540;2023-04-15T11:06:01;11.50;;;9.10;;
68076;SDS011;54866;53.458;14.540;2023-04-15T11:14:35;11.00;;;9.90;;
68076;SDS011;54866;53.458;14.540;2023-04-15T11:17:08;10.90;;;8.70;;
68076;SDS011;54866;53.458;14.540;2023-04-15T11:19:38;10.20;;;9.00;;
68076;SDS011;54866;53.458;14.540;2023-04-15T11:22:08;13.90;;;10.80;;
68076;SDS011;54866;53.458;14.540;2023-04-15T11:24:47;12.00;;;10.00;;
68076;SDS011;54866;53.458;14.540;2023-04-15T11:27:21;10.40;;;8.20;;
68076;SDS011;54866;53.458;14.540;2023-04-15T11:29:50;9.90;;;8.30;;
68076;SDS011;54866;53.458;14.540;2023-04-15T11:32:20;9.60;;;7.40;;
68076;SDS011;54866;53.458;14.540;2023-04-15T11:34:49;10.40;;;8.90;;
